sensor_id;sensor_type;location;lat;lon;timestamp;P1;durP1;ratioP1;P2;durP2;ratioP2
43990;SDS011;29654;50.784;20.604;2023-09-07T00:04:26;9.70;;;8.07;;
43990;SDS011;29654;50.784;20.604;2023-09-07T00:09:29;7.60;;;6.82;;
43990;SDS011;29654;50.784;20.604;2023-09-07T00:14:32;10.45;;;7.63;;
43990;SDS011;29654;50.784;20.604;2023-09-07T00:19:35;11.38;;;8.38;;
43990;SDS011;29654;50.784;20.604;2023-09-07T00:24:38;10.70;;;7.57;;
43990;SDS011;29654;50.784;20.604;2023-09-07T00:29:42;10.43;;;8.13;;
43990;SDS011;29654;50.784;20.604;2023-09-07T00:34:44;10.77;;;8.25;;
43990;SDS011;29654;50.784;20.604;2023-09-07T00:39:47;10.88;;;7.50;;
43990;SDS011;29654;50.784;20.604;2023-09-07T00:44:51;8.27;;;7.45;;
43990;SDS011;29654;50.784;20.604;2023-09-07T00:49:54;8.75;;;7.30;;
43990;SDS011;29654;50.784;20.604;2023-09-07T00:54:59;9.07;;;6.00;;
43990;SDS011;29654;50.784;20.604;2023-09-07T01:00:06;8.40;;;6.55;;
43990;SDS011;29654;50.784;20.604;2023-09-07T01:05:11;7.60;;;6.55;;
43990;SDS011;29654;50.784;20.604;2023-09-07T01:10:14;8.50;;;7.18;;
43990;SDS011;29654;50.784;20.604;2023-09-07T01:15:22;9.48;;;6.85;;
43990;SDS011;29654;50.784;20.604;2023-09-07T01:20:27;8.40;;;6.72;;
43990;SDS011;29654;50.784;20.604;2023-09-07T01:25:33;9.80;;;6.05;;
43990;SDS011;29654;50.784;20.604;2023-09-07T01:30:36;9.43;;;7.53;;
43990;SDS011;29654;50.784;20.604;2023-09-07T01:35:39;10.23;;;7.45;;
43990;SDS011;29654;50.784;20.604;2023-09-07T01:40:45;10.20;;;6.55;;
43990;SDS011;29654;50.784;20.604;2023-09-07T01:45:47;9.73;;;6.72;;
43990;SDS011;29654;50.784;20.604;2023-09-07T01:50:51;10.90;;;7.38;;
43990;SDS011;29654;50.784;20.604;2023-09-07T01:55:56;9.63;;;6.25;;
43990;SDS011;29654;50.784;20.604;2023-09-07T02:00:59;8.63;;;6.78;;
43990;SDS011;29654;50.784;20.604;2023-09-07T02:06:02;5.95;;;5.35;;
43990;SDS011;29654;50.784;20.604;2023-09-07T02:11:06;8.07;;;7.15;;
43990;SDS011;29654;50.784;20.604;2023-09-07T02:16:09;8.55;;;7.18;;
43990;SDS011;29654;50.784;20.604;2023-09-07T02:21:11;7.68;;;6.47;;
43990;SDS011;29654;50.784;20.604;2023-09-07T02:26:16;9.88;;;7.47;;
43990;SDS011;29654;50.784;20.604;2023-09-07T02:31:18;10.25;;;7.05;;
43990;SDS011;29654;50.784;20.604;2023-09-07T02:36:22;11.15;;;7.53;;
43990;SDS011;29654;50.784;20.604;2023-09-07T02:41:25;8.07;;;6.90;;
43990;SDS011;29654;50.784;20.604;2023-09-07T02:46:28;8.20;;;5.95;;
43990;SDS011;29654;50.784;20.604;2023-09-07T02:51:31;8.40;;;6.65;;
43990;SDS011;29654;50.784;20.604;2023-09-07T02:56:35;8.43;;;6.55;;
43990;SDS011;29654;50.784;20.604;2023-09-07T03:01:38;8.32;;;5.82;;
43990;SDS011;29654;50.784;20.604;2023-09-07T03:06:40;7.93;;;6.80;;
43990;SDS011;29654;50.784;20.604;2023-09-07T03:11:45;10.68;;;6.85;;
43990;SDS011;29654;50.784;20.604;2023-09-07T03:16:48;9.57;;;6.38;;
43990;SDS011;29654;50.784;20.604;2023-09-07T03:21:52;8.57;;;6.72;;
43990;SDS011;29654;50.784;20.604;2023-09-07T03:26:58;7.45;;;6.40;;
43990;SDS011;29654;50.784;20.604;2023-09-07T03:32:01;8.73;;;6.80;;
43990;SDS011;29654;50.784;20.604;2023-09-07T03:37:04;9.43;;;6.68;;
43990;SDS011;29654;50.784;20.604;2023-09-07T03:42:08;7.82;;;6.72;;
43990;SDS011;29654;50.784;20.604;2023-09-07T03:47:13;10.13;;;6.32;;
43990;SDS011;29654;50.784;20.604;2023-09-07T03:52:17;8.25;;;6.35;;
43990;SDS011;29654;50.784;20.604;2023-09-07T03:57:23;8.55;;;6.93;;
43990;SDS011;29654;50.784;20.604;2023-09-07T04:02:27;9.55;;;7.30;;
43990;SDS011;29654;50.784;20.604;2023-09-07T04:07:30;9.85;;;7.47;;
43990;SDS011;29654;50.784;20.604;2023-09-07T04:12:34;10.52;;;7.60;;
43990;SDS011;29654;50.784;20.604;2023-09-07T04:17:37;11.05;;;7.25;;
43990;SDS011;29654;50.784;20.604;2023-09-07T04:22:41;9.63;;;7.00;;
43990;SDS011;29654;50.784;20.604;2023-09-07T04:27:46;9.30;;;7.57;;
43990;SDS011;29654;50.784;20.604;2023-09-07T04:32:49;8.50;;;6.75;;
43990;SDS011;29654;50.784;20.604;2023-09-07T04:37:52;8.93;;;7.22;;
43990;SDS011;29654;50.784;20.604;2023-09-07T04:42:56;8.23;;;6.75;;
43990;SDS011;29654;50.784;20.604;2023-09-07T04:47:59;7.53;;;6.10;;
43990;SDS011;29654;50.784;20.604;2023-09-07T04:53:02;8.05;;;7.15;;
43990;SDS011;29654;50.784;20.604;2023-09-07T04:58:07;8.68;;;7.82;;
43990;SDS011;29654;50.784;20.604;2023-09-07T05:03:09;7.32;;;5.63;;
43990;SDS011;29654;50.784;20.604;2023-09-07T05:08:13;7.32;;;5.90;;
43990;SDS011;29654;50.784;20.604;2023-09-07T05:13:17;9.80;;;5.82;;
43990;SDS011;29654;50.784;20.604;2023-09-07T05:18:20;6.65;;;5.35;;
43990;SDS011;29654;50.784;20.604;2023-09-07T05:23:23;9.23;;;6.53;;
43990;SDS011;29654;50.784;20.604;2023-09-07T05:28:28;7.65;;;5.97;;
43990;SDS011;29654;50.784;20.604;2023-09-07T05:33:31;7.53;;;5.30;;
43990;SDS011;29654;50.784;20.604;2023-09-07T05:38:34;10.93;;;6.00;;
43990;SDS011;29654;50.784;20.604;2023-09-07T05:43:40;7.07;;;5.82;;
43990;SDS011;29654;50.784;20.604;2023-09-07T05:48:43;9.23;;;6.18;;
43990;SDS011;29654;50.784;20.604;2023-09-07T05:53:46;9.55;;;7.03;;
43990;SDS011;29654;50.784;20.604;2023-09-07T05:58:50;10.50;;;5.78;;
43990;SDS011;29654;50.784;20.604;2023-09-07T06:03:53;8.23;;;5.47;;
43990;SDS011;29654;50.784;20.604;2023-09-07T06:08:56;8.35;;;5.72;;
43990;SDS011;29654;50.784;20.604;2023-09-07T06:14:01;8.63;;;5.63;;
43990;SDS011;29654;50.784;20.604;2023-09-07T06:19:05;8.40;;;4.85;;
43990;SDS011;29654;50.784;20.604;2023-09-07T06:24:08;8.57;;;4.88;;
43990;SDS011;29654;50.784;20.604;2023-09-07T06:29:12;6.13;;;5.15;;
43990;SDS011;29654;50.784;20.604;2023-09-07T06:34:15;7.50;;;4.28;;
43990;SDS011;29654;50.784;20.604;2023-09-07T06:39:18;9.15;;;4.55;;
43990;SDS011;29654;50.784;20.604;2023-09-07T06:44:23;5.10;;;4.22;;
43990;SDS011;29654;50.784;20.604;2023-09-07T06:49:26;5.40;;;3.72;;
43990;SDS011;29654;50.784;20.604;2023-09-07T06:54:31;4.03;;;3.63;;
43990;SDS011;29654;50.784;20.604;2023-09-07T06:59:35;4.13;;;3.78;;
43990;SDS011;29654;50.784;20.604;2023-09-07T07:04:38;4.07;;;3.75;;
43990;SDS011;29654;50.784;20.604;2023-09-07T07:09:41;4.35;;;3.28;;
43990;SDS011;29654;50.784;20.604;2023-09-07T07:14:45;4.65;;;4.25;;
43990;SDS011;29654;50.784;20.604;2023-09-07T07:19:48;4.70;;;4.07;;
43990;SDS011;29654;50.784;20.604;2023-09-07T07:24:50;6.43;;;4.78;;
43990;SDS011;29654;50.784;20.604;2023-09-07T07:29:56;4.65;;;3.80;;
43990;SDS011;29654;50.784;20.604;2023-09-07T07:34:59;7.22;;;4.72;;
43990;SDS011;29654;50.784;20.604;2023-09-07T07:40:04;6.68;;;4.78;;
43990;SDS011;29654;50.784;20.604;2023-09-07T07:45:10;5.22;;;4.72;;
43990;SDS011;29654;50.784;20.604;2023-09-07T07:50:14;6.60;;;6.10;;
43990;SDS011;29654;50.784;20.604;2023-09-07T07:55:19;5.65;;;5.15;;
43990;SDS011;29654;50.784;20.604;2023-09-07T08:00:23;6.78;;;6.18;;
43990;SDS011;29654;50.784;20.604;2023-09-07T08:05:28;6.32;;;5.72;;
43990;SDS011;29654;50.784;20.604;2023-09-07T08:10:33;5.47;;;4.97;;
43990;SDS011;29654;50.784;20.604;2023-09-07T08:15:38;5.82;;;5.28;;
43990;SDS011;29654;50.784;20.604;2023-09-07T08:20:42;5.65;;;5.18;;
43990;SDS011;29654;50.784;20.604;2023-09-07T08:25:45;5.00;;;4.60;;
43990;SDS011;29654;50.784;20.604;2023-09-07T08:30:50;5.45;;;4.95;;
43990;SDS011;29654;50.784;20.604;2023-09-07T08:35:55;5.15;;;4.75;;
43990;SDS011;29654;50.784;20.604;2023-09-07T08:41:00;4.80;;;4.40;;
43990;SDS011;29654;50.784;20.604;2023-09-07T08:46:09;4.78;;;4.38;;
43990;SDS011;29654;50.784;20.604;2023-09-07T08:51:16;4.50;;;4.20;;
43990;SDS011;29654;50.784;20.604;2023-09-07T08:56:20;5.00;;;4.60;;
43990;SDS011;29654;50.784;20.604;2023-09-07T09:01:24;4.75;;;4.35;;
43990;SDS011;29654;50.784;20.604;2023-09-07T09:06:28;4.93;;;4.47;;
43990;SDS011;29654;50.784;20.604;2023-09-07T09:11:31;3.80;;;3.50;;
43990;SDS011;29654;50.784;20.604;2023-09-07T09:16:35;4.65;;;3.92;;
43990;SDS011;29654;50.784;20.604;2023-09-07T09:21:37;3.80;;;3.50;;
43990;SDS011;29654;50.784;20.604;2023-09-07T09:26:40;3.88;;;3.47;;
43990;SDS011;29654;50.784;20.604;2023-09-07T09:31:44;4.25;;;3.90;;
43990;SDS011;29654;50.784;20.604;2023-09-07T09:36:47;3.55;;;3.25;;
43990;SDS011;29654;50.784;20.604;2023-09-07T09:41:51;4.38;;;3.72;;
43990;SDS011;29654;50.784;20.604;2023-09-07T09:46:57;4.55;;;4.25;;
43990;SDS011;29654;50.784;20.604;2023-09-07T09:52:01;5.82;;;3.85;;
43990;SDS011;29654;50.784;20.604;2023-09-07T09:57:04;4.25;;;3.90;;
43990;SDS011;29654;50.784;20.604;2023-09-07T10:02:08;5.38;;;4.30;;
43990;SDS011;29654;50.784;20.604;2023-09-07T10:07:12;4.75;;;4.35;;
43990;SDS011;29654;50.784;20.604;2023-09-07T10:12:15;4.80;;;4.18;;
43990;SDS011;29654;50.784;20.604;2023-09-07T10:17:28;4.03;;;3.70;;
43990;SDS011;29654;50.784;20.604;2023-09-07T10:22:30;4.47;;;4.07;;
43990;SDS011;29654;50.784;20.604;2023-09-07T10:27:36;3.33;;;3.13;;
43990;SDS011;29654;50.784;20.604;2023-09-07T10:32:41;4.32;;;3.90;;
43990;SDS011;29654;50.784;20.604;2023-09-07T10:37:46;3.47;;;2.92;;
43990;SDS011;29654;50.784;20.604;2023-09-07T10:42:49;3.97;;;2.95;;
43990;SDS011;29654;50.784;20.604;2023-09-07T10:48:04;4.32;;;3.47;;
43990;SDS011;29654;50.784;20.604;2023-09-07T10:53:08;3.05;;;2.75;;
43990;SDS011;29654;50.784;20.604;2023-09-07T10:58:10;2.75;;;2.55;;
43990;SDS011;29654;50.784;20.604;2023-09-07T11:03:14;2.95;;;2.40;;
43990;SDS011;29654;50.784;20.604;2023-09-07T11:08:17;2.60;;;2.40;;
43990;SDS011;29654;50.784;20.604;2023-09-07T11:13:20;4.00;;;2.38;;
43990;SDS011;29654;50.784;20.604;2023-09-07T11:18:26;2.58;;;2.38;;
43990;SDS011;29654;50.784;20.604;2023-09-07T11:23:28;3.72;;;2.90;;
43990;SDS011;29654;50.784;20.604;2023-09-07T11:28:37;2.47;;;2.28;;
43990;SDS011;29654;50.784;20.604;2023-09-07T11:33:41;2.90;;;2.67;;
43990;SDS011;29654;50.784;20.604;2023-09-07T11:38:43;3.40;;;2.45;;
43990;SDS011;29654;50.784;20.604;2023-09-07T11:43:46;3.17;;;2.17;;
43990;SDS011;29654;50.784;20.604;2023-09-07T11:48:50;2.35;;;2.15;;
43990;SDS011;29654;50.784;20.604;2023-09-07T11:53:53;2.58;;;2.38;;
43990;SDS011;29654;50.784;20.604;2023-09-07T11:58:55;2.55;;;2.35;;
43990;SDS011;29654;50.784;20.604;2023-09-07T12:04:00;2.72;;;2.53;;
43990;SDS011;29654;50.784;20.604;2023-09-07T12:09:05;2.53;;;2.33;;
43990;SDS011;29654;50.784;20.604;2023-09-07T12:14:09;2.92;;;2.65;;
43990;SDS011;29654;50.784;20.604;2023-09-07T12:19:13;2.08;;;1.98;;
43990;SDS011;29654;50.784;20.604;2023-09-07T12:24:15;2.28;;;2.08;;
43990;SDS011;29654;50.784;20.604;2023-09-07T12:29:18;2.42;;;2.15;;
43990;SDS011;29654;50.784;20.604;2023-09-07T12:34:23;3.15;;;1.80;;
43990;SDS011;29654;50.784;20.604;2023-09-07T12:39:25;3.63;;;2.22;;
43990;SDS011;29654;50.784;20.604;2023-09-07T12:44:28;3.30;;;2.40;;
43990;SDS011;29654;50.784;20.604;2023-09-07T12:49:32;5.13;;;2.25;;
43990;SDS011;29654;50.784;20.604;2023-09-07T12:54:34;3.08;;;2.70;;
43990;SDS011;29654;50.784;20.604;2023-09-07T12:59:38;2.35;;;1.95;;
43990;SDS011;29654;50.784;20.604;2023-09-07T13:04:42;2.67;;;2.47;;
43990;SDS011;29654;50.784;20.604;2023-09-07T13:09:44;3.78;;;3.28;;
43990;SDS011;29654;50.784;20.604;2023-09-07T13:14:47;2.92;;;2.70;;
43990;SDS011;29654;50.784;20.604;2023-09-07T13:19:51;2.42;;;2.10;;
43990;SDS011;29654;50.784;20.604;2023-09-07T13:24:54;2.70;;;2.50;;
43990;SDS011;29654;50.784;20.604;2023-09-07T13:29:57;2.90;;;2.58;;
43990;SDS011;29654;50.784;20.604;2023-09-07T13:35:03;3.45;;;2.40;;
43990;SDS011;29654;50.784;20.604;2023-09-07T13:40:06;6.57;;;2.25;;
43990;SDS011;29654;50.784;20.604;2023-09-07T13:45:11;4.88;;;2.60;;
43990;SDS011;29654;50.784;20.604;2023-09-07T13:50:14;2.50;;;2.30;;
43990;SDS011;29654;50.784;20.604;2023-09-07T13:55:17;2.50;;;2.30;;
43990;SDS011;29654;50.784;20.604;2023-09-07T14:00:20;2.17;;;2.08;;
43990;SDS011;29654;50.784;20.604;2023-09-07T14:05:25;2.40;;;2.17;;
43990;SDS011;29654;50.784;20.604;2023-09-07T14:10:27;2.53;;;2.33;;
43990;SDS011;29654;50.784;20.604;2023-09-07T14:15:30;2.53;;;2.33;;
43990;SDS011;29654;50.784;20.604;2023-09-07T14:20:34;2.53;;;2.22;;
43990;SDS011;29654;50.784;20.604;2023-09-07T14:25:37;2.50;;;2.00;;
43990;SDS011;29654;50.784;20.604;2023-09-07T14:30:42;3.35;;;2.40;;
43990;SDS011;29654;50.784;20.604;2023-09-07T14:35:48;2.72;;;2.53;;
43990;SDS011;29654;50.784;20.604;2023-09-07T14:40:55;2.30;;;2.10;;
43990;SDS011;29654;50.784;20.604;2023-09-07T14:45:57;3.97;;;2.40;;
43990;SDS011;29654;50.784;20.604;2023-09-07T14:51:01;2.88;;;2.67;;
43990;SDS011;29654;50.784;20.604;2023-09-07T14:56:04;2.00;;;1.90;;
43990;SDS011;29654;50.784;20.604;2023-09-07T15:01:07;2.42;;;2.22;;
43990;SDS011;29654;50.784;20.604;2023-09-07T15:06:11;1.95;;;1.83;;
43990;SDS011;29654;50.784;20.604;2023-09-07T15:11:16;2.33;;;2.13;;
43990;SDS011;29654;50.784;20.604;2023-09-07T15:16:18;4.32;;;2.15;;
43990;SDS011;29654;50.784;20.604;2023-09-07T15:21:23;2.55;;;2.08;;
43990;SDS011;29654;50.784;20.604;2023-09-07T15:26:25;2.53;;;2.33;;
43990;SDS011;29654;50.784;20.604;2023-09-07T15:31:28;3.63;;;2.70;;
43990;SDS011;29654;50.784;20.604;2023-09-07T15:36:31;2.72;;;2.53;;
43990;SDS011;29654;50.784;20.604;2023-09-07T15:41:35;2.50;;;2.30;;
43990;SDS011;29654;50.784;20.604;2023-09-07T15:46:37;2.22;;;2.03;;
43990;SDS011;29654;50.784;20.604;2023-09-07T15:51:42;2.88;;;2.67;;
43990;SDS011;29654;50.784;20.604;2023-09-07T15:56:46;3.50;;;3.22;;
43990;SDS011;29654;50.784;20.604;2023-09-07T16:01:48;2.65;;;2.40;;
43990;SDS011;29654;50.784;20.604;2023-09-07T16:06:52;2.92;;;2.72;;
43990;SDS011;29654;50.784;20.604;2023-09-07T16:11:55;2.67;;;2.47;;
43990;SDS011;29654;50.784;20.604;2023-09-07T16:16:58;3.35;;;2.55;;
43990;SDS011;29654;50.784;20.604;2023-09-07T16:22:02;2.80;;;2.60;;
43990;SDS011;29654;50.784;20.604;2023-09-07T16:27:07;2.35;;;2.15;;
43990;SDS011;29654;50.784;20.604;2023-09-07T16:32:09;3.78;;;2.45;;
43990;SDS011;29654;50.784;20.604;2023-09-07T16:37:13;2.50;;;2.30;;
43990;SDS011;29654;50.784;20.604;2023-09-07T16:42:16;3.17;;;2.70;;
43990;SDS011;29654;50.784;20.604;2023-09-07T16:47:19;2.83;;;2.60;;
43990;SDS011;29654;50.784;20.604;2023-09-07T16:52:24;2.60;;;2.10;;
43990;SDS011;29654;50.784;20.604;2023-09-07T16:57:32;2.78;;;2.55;;
43990;SDS011;29654;50.784;20.604;2023-09-07T17:02:36;2.60;;;2.40;;
43990;SDS011;29654;50.784;20.604;2023-09-07T17:07:40;2.65;;;2.45;;
43990;SDS011;29654;50.784;20.604;2023-09-07T17:12:43;2.70;;;2.50;;
43990;SDS011;29654;50.784;20.604;2023-09-07T17:17:47;2.55;;;2.35;;
43990;SDS011;29654;50.784;20.604;2023-09-07T17:22:51;3.42;;;2.70;;
43990;SDS011;29654;50.784;20.604;2023-09-07T17:27:54;2.55;;;2.33;;
43990;SDS011;29654;50.784;20.604;2023-09-07T17:32:57;3.47;;;2.60;;
43990;SDS011;29654;50.784;20.604;2023-09-07T17:38:01;4.00;;;2.85;;
43990;SDS011;29654;50.784;20.604;2023-09-07T17:43:04;3.17;;;2.78;;
43990;SDS011;29654;50.784;20.604;2023-09-07T17:48:06;3.30;;;2.97;;
43990;SDS011;29654;50.784;20.604;2023-09-07T17:53:10;4.15;;;2.95;;
43990;SDS011;29654;50.784;20.604;2023-09-07T17:58:13;3.80;;;3.38;;
43990;SDS011;29654;50.784;20.604;2023-09-07T18:03:15;3.40;;;3.15;;
43990;SDS011;29654;50.784;20.604;2023-09-07T18:08:19;4.07;;;3.45;;
43990;SDS011;29654;50.784;20.604;2023-09-07T18:13:22;3.42;;;3.13;;
43990;SDS011;29654;50.784;20.604;2023-09-07T18:18:24;3.70;;;3.40;;
43990;SDS011;29654;50.784;20.604;2023-09-07T18:23:28;2.88;;;2.42;;
43990;SDS011;29654;50.784;20.604;2023-09-07T18:28:31;3.92;;;3.40;;
43990;SDS011;29654;50.784;20.604;2023-09-07T18:33:34;4.93;;;3.80;;
43990;SDS011;29654;50.784;20.604;2023-09-07T18:38:38;4.13;;;3.67;;
43990;SDS011;29654;50.784;20.604;2023-09-07T18:43:40;4.80;;;3.97;;
43990;SDS011;29654;50.784;20.604;2023-09-07T18:48:44;5.50;;;3.65;;
43990;SDS011;29654;50.784;20.604;2023-09-07T18:53:47;7.70;;;4.50;;
43990;SDS011;29654;50.784;20.604;2023-09-07T18:58:50;4.78;;;4.28;;
43990;SDS011;29654;50.784;20.604;2023-09-07T19:03:53;4.22;;;3.55;;
43990;SDS011;29654;50.784;20.604;2023-09-07T19:09:10;4.55;;;3.85;;
43990;SDS011;29654;50.784;20.604;2023-09-07T19:14:12;5.28;;;4.65;;
43990;SDS011;29654;50.784;20.604;2023-09-07T19:19:16;6.05;;;5.18;;
43990;SDS011;29654;50.784;20.604;2023-09-07T19:24:20;6.15;;;5.60;;
43990;SDS011;29654;50.784;20.604;2023-09-07T19:29:23;5.28;;;4.78;;
43990;SDS011;29654;50.784;20.604;2023-09-07T19:34:25;7.72;;;6.00;;
43990;SDS011;29654;50.784;20.604;2023-09-07T19:39:30;6.43;;;5.80;;
43990;SDS011;29654;50.784;20.604;2023-09-07T19:44:33;6.90;;;5.95;;
43990;SDS011;29654;50.784;20.604;2023-09-07T19:49:36;7.55;;;5.88;;
43990;SDS011;29654;50.784;20.604;2023-09-07T19:54:43;6.65;;;5.35;;
43990;SDS011;29654;50.784;20.604;2023-09-07T19:59:49;9.48;;;6.32;;
43990;SDS011;29654;50.784;20.604;2023-09-07T20:04:52;6.30;;;5.80;;
43990;SDS011;29654;50.784;20.604;2023-09-07T20:09:56;6.55;;;5.82;;
43990;SDS011;29654;50.784;20.604;2023-09-07T20:14:59;7.45;;;5.80;;
43990;SDS011;29654;50.784;20.604;2023-09-07T20:20:01;7.13;;;6.35;;
43990;SDS011;29654;50.784;20.604;2023-09-07T20:25:06;8.40;;;6.50;;
43990;SDS011;29654;50.784;20.604;2023-09-07T20:30:10;7.60;;;6.72;;
43990;SDS011;29654;50.784;20.604;2023-09-07T20:35:13;8.32;;;6.35;;
43990;SDS011;29654;50.784;20.604;2023-09-07T20:40:17;6.20;;;5.60;;
43990;SDS011;29654;50.784;20.604;2023-09-07T20:45:20;7.88;;;6.82;;
43990;SDS011;29654;50.784;20.604;2023-09-07T20:50:24;7.80;;;5.82;;
43990;SDS011;29654;50.784;20.604;2023-09-07T20:55:28;7.10;;;6.03;;
43990;SDS011;29654;50.784;20.604;2023-09-07T21:00:32;9.35;;;6.75;;
43990;SDS011;29654;50.784;20.604;2023-09-07T21:05:35;10.75;;;7.85;;
43990;SDS011;29654;50.784;20.604;2023-09-07T21:10:39;9.57;;;7.25;;
43990;SDS011;29654;50.784;20.604;2023-09-07T21:15:41;6.60;;;5.72;;
43990;SDS011;29654;50.784;20.604;2023-09-07T21:20:44;9.30;;;8.10;;
43990;SDS011;29654;50.784;20.604;2023-09-07T21:25:48;9.40;;;8.05;;
43990;SDS011;29654;50.784;20.604;2023-09-07T21:30:50;9.60;;;7.70;;
43990;SDS011;29654;50.784;20.604;2023-09-07T21:35:53;11.48;;;8.32;;
43990;SDS011;29654;50.784;20.604;2023-09-07T21:40:57;11.13;;;8.35;;
43990;SDS011;29654;50.784;20.604;2023-09-07T21:45:59;11.32;;;9.35;;
43990;SDS011;29654;50.784;20.604;2023-09-07T21:51:02;11.48;;;8.80;;
43990;SDS011;29654;50.784;20.604;2023-09-07T21:56:06;10.55;;;8.40;;
43990;SDS011;29654;50.784;20.604;2023-09-07T22:01:08;11.40;;;8.68;;
43990;SDS011;29654;50.784;20.604;2023-09-07T22:06:11;10.77;;;8.38;;
43990;SDS011;29654;50.784;20.604;2023-09-07T22:11:15;14.57;;;9.35;;
43990;SDS011;29654;50.784;20.604;2023-09-07T22:16:18;12.90;;;9.63;;
43990;SDS011;29654;50.784;20.604;2023-09-07T22:21:20;13.30;;;10.20;;
43990;SDS011;29654;50.784;20.604;2023-09-07T22:26:26;10.48;;;8.52;;
43990;SDS011;29654;50.784;20.604;2023-09-07T22:31:28;9.23;;;7.88;;
43990;SDS011;29654;50.784;20.604;2023-09-07T22:36:31;10.07;;;8.27;;
43990;SDS011;29654;50.784;20.604;2023-09-07T22:41:35;10.10;;;8.43;;
43990;SDS011;29654;50.784;20.604;2023-09-07T22:46:37;13.05;;;10.35;;
43990;SDS011;29654;50.784;20.604;2023-09-07T22:51:40;11.57;;;9.85;;
43990;SDS011;29654;50.784;20.604;2023-09-07T22:56:44;12.57;;;9.32;;
43990;SDS011;29654;50.784;20.604;2023-09-07T23:01:46;13.73;;;9.93;;
43990;SDS011;29654;50.784;20.604;2023-09-07T23:06:49;13.63;;;9.60;;
43990;SDS011;29654;50.784;20.604;2023-09-07T23:11:52;11.13;;;9.27;;
43990;SDS011;29654;50.784;20.604;2023-09-07T23:16:55;9.13;;;7.93;;
43990;SDS011;29654;50.784;20.604;2023-09-07T23:21:58;11.82;;;9.35;;
43990;SDS011;29654;50.784;20.604;2023-09-07T23:27:02;9.60;;;8.35;;
43990;SDS011;29654;50.784;20.604;2023-09-07T23:32:05;11.60;;;9.18;;
43990;SDS011;29654;50.784;20.604;2023-09-07T23:37:08;11.30;;;9.82;;
43990;SDS011;29654;50.784;20.604;2023-09-07T23:42:11;10.55;;;9.45;;
43990;SDS011;29654;50.784;20.604;2023-09-07T23:47:14;9.77;;;8.27;;
43990;SDS011;29654;50.784;20.604;2023-09-07T23:52:16;9.77;;;8.80;;
43990;SDS011;29654;50.784;20.604;2023-09-07T23:57:20;11.07;;;9.23;;
